createdAt,value
2023-05-18T00:00:14.877Z,8.80
2023-05-18T00:05:19.312Z,8.60
2023-05-18T00:10:21.282Z,8.40
2023-05-18T00:15:23.129Z,8.40
2023-05-18T00:20:26.701Z,8.20
2023-05-18T00:25:28.683Z,8.10
2023-05-18T00:30:30.658Z,8.00
2023-05-18T00:35:32.626Z,8.10
2023-05-18T00:40:34.646Z,7.80
2023-05-18T00:45:36.523Z,7.70
2023-05-18T00:50:38.527Z,7.70
2023-05-18T00:55:40.460Z,7.50
2023-05-18T01:00:44.844Z,7.50
2023-05-18T01:05:50.056Z,7.40
2023-05-18T01:11:27.681Z,7.40
2023-05-18T01:16:40.611Z,7.40
2023-05-18T01:22:22.052Z,7.40
2023-05-18T01:27:25.681Z,7.30
2023-05-18T01:32:27.439Z,7.40
2023-05-18T01:37:29.171Z,7.40
2023-05-18T01:42:33.193Z,7.30
2023-05-18T01:47:37.325Z,7.20
2023-05-18T01:52:52.956Z,7.30
2023-05-18T01:57:55.742Z,7.30
2023-05-18T02:02:58.178Z,7.20
2023-05-18T02:08:00.056Z,7.20
2023-05-18T02:13:01.962Z,7.10
2023-05-18T02:18:03.841Z,7.10
2023-05-18T02:23:05.582Z,7.00
2023-05-18T02:28:07.321Z,7.00
2023-05-18T02:33:09.270Z,6.90
2023-05-18T02:38:11.133Z,6.90
2023-05-18T02:43:13.660Z,6.90
2023-05-18T02:48:15.582Z,6.70
2023-05-18T02:53:17.328Z,6.70
2023-05-18T02:58:20.411Z,6.80
2023-05-18T03:03:23.850Z,6.80
2023-05-18T03:08:27.087Z,6.70
2023-05-18T03:13:29.001Z,6.70
2023-05-18T03:18:30.760Z,6.70
2023-05-18T03:23:32.563Z,6.60
2023-05-18T03:28:34.311Z,6.60
2023-05-18T03:33:36.113Z,6.60
2023-05-18T03:38:37.856Z,6.60
2023-05-18T03:43:39.569Z,6.60
2023-05-18T03:48:41.301Z,6.80
2023-05-18T03:53:43.051Z,6.60
2023-05-18T03:58:45.592Z,6.60
2023-05-18T04:03:47.539Z,6.60
2023-05-18T04:08:50.219Z,6.70
2023-05-18T04:13:52.077Z,6.60
2023-05-18T04:18:54.092Z,6.70
2023-05-18T04:23:55.864Z,6.80
2023-05-18T04:29:00.310Z,6.80
2023-05-18T04:34:02.177Z,6.80
2023-05-18T04:39:07.737Z,6.80
2023-05-18T04:44:09.590Z,7.00
2023-05-18T04:49:11.737Z,6.90
2023-05-18T04:54:13.872Z,7.10
2023-05-18T04:59:16.036Z,7.20
2023-05-18T05:04:17.761Z,7.30
2023-05-18T05:09:19.545Z,7.60
2023-05-18T05:14:21.264Z,8.00
2023-05-18T05:19:23.078Z,8.40
2023-05-18T05:24:24.933Z,8.70
2023-05-18T05:29:27.966Z,8.90
2023-05-18T05:34:29.678Z,9.00
2023-05-18T05:39:31.397Z,8.90
2023-05-18T05:44:33.307Z,8.80
2023-05-18T05:49:35.218Z,8.90
2023-05-18T05:54:37.345Z,9.00
2023-05-18T05:59:39.085Z,9.30
2023-05-18T06:04:41.347Z,9.30
2023-05-18T06:09:43.058Z,9.40
2023-05-18T06:14:44.937Z,9.60
2023-05-18T06:19:46.626Z,9.70
2023-05-18T06:24:48.398Z,9.80
2023-05-18T06:29:50.241Z,9.90
2023-05-18T06:34:52.679Z,10.00
2023-05-18T06:39:54.455Z,10.20
2023-05-18T06:44:56.157Z,10.30
2023-05-18T06:49:57.924Z,10.40
2023-05-18T06:55:01.285Z,10.50
2023-05-18T07:00:07.096Z,10.70
2023-05-18T07:05:09.240Z,10.60
2023-05-18T07:10:11.528Z,10.80
2023-05-18T07:15:13.269Z,11.00
2023-05-18T07:20:15.049Z,11.10
2023-05-18T07:25:16.988Z,11.40
2023-05-18T07:30:19.023Z,11.40
2023-05-18T07:35:21.984Z,11.60
2023-05-18T07:40:23.800Z,11.70
2023-05-18T07:45:25.659Z,11.80
2023-05-18T07:50:29.441Z,11.80
2023-05-18T07:55:31.982Z,11.90
2023-05-18T08:00:34.307Z,12.00
2023-05-18T08:05:36.239Z,12.10
2023-05-18T08:10:38.201Z,12.40
2023-05-18T08:15:43.103Z,12.50
2023-05-18T08:20:45.096Z,12.70
2023-05-18T08:25:46.818Z,12.90
2023-05-18T08:30:48.533Z,13.20
2023-05-18T08:35:50.813Z,13.70
2023-05-18T08:41:02.701Z,13.90
2023-05-18T08:46:18.927Z,14.20
2023-05-18T08:51:21.819Z,14.20
2023-05-18T08:56:24.736Z,14.40
2023-05-18T09:01:31.270Z,14.40
2023-05-18T09:06:35.765Z,15.10
2023-05-18T09:11:39.162Z,15.20
2023-05-18T09:16:41.021Z,15.20
2023-05-18T09:21:42.766Z,15.50
2023-05-18T09:26:44.660Z,15.10
2023-05-18T09:31:47.494Z,14.80
2023-05-18T09:36:57.714Z,14.70
2023-05-18T09:42:03.842Z,14.80
2023-05-18T09:47:12.356Z,14.70
2023-05-18T09:52:14.199Z,15.30
2023-05-18T09:57:21.859Z,15.70
2023-05-18T10:02:25.805Z,15.90
2023-05-18T10:07:27.641Z,15.80
2023-05-18T10:12:29.549Z,15.40
2023-05-18T10:17:33.992Z,15.40
2023-05-18T10:22:37.306Z,15.80
2023-05-18T10:27:40.050Z,15.80
2023-05-18T10:32:43.380Z,15.80
2023-05-18T10:37:50.308Z,15.70
2023-05-18T10:42:53.409Z,15.40
2023-05-18T10:47:57.254Z,15.10
2023-05-18T10:53:00.856Z,14.90
2023-05-18T10:58:12.242Z,15.40
2023-05-18T11:03:16.159Z,15.20
2023-05-18T11:08:27.527Z,14.80
2023-05-18T11:13:34.061Z,15.20
2023-05-18T11:18:45.790Z,15.10
2023-05-18T11:24:31.681Z,15.60
2023-05-18T11:29:42.510Z,15.50
2023-05-18T11:34:46.482Z,15.70
2023-05-18T11:40:00.341Z,16.50
2023-05-18T11:45:13.119Z,16.00
2023-05-18T11:50:17.399Z,15.70
2023-05-18T11:55:20.928Z,15.80
2023-05-18T12:00:24.850Z,16.70
2023-05-18T12:05:30.704Z,17.60
2023-05-18T12:10:36.728Z,17.40
2023-05-18T12:15:39.678Z,17.20
2023-05-18T12:20:41.436Z,17.40
2023-05-18T12:25:43.219Z,18.20
2023-05-18T12:30:45.133Z,18.60
2023-05-18T12:35:46.901Z,18.30
2023-05-18T12:40:50.362Z,18.30
2023-05-18T12:45:52.393Z,18.00
2023-05-18T12:50:55.572Z,18.20
2023-05-18T12:55:59.561Z,18.10
2023-05-18T13:01:09.353Z,18.90
2023-05-18T13:06:11.196Z,18.60
2023-05-18T13:11:15.887Z,18.20
2023-05-18T13:16:17.706Z,17.90
2023-05-18T13:21:19.538Z,17.80
2023-05-18T13:26:22.943Z,18.50
2023-05-18T13:31:25.273Z,18.60
2023-05-18T13:36:29.784Z,19.00
2023-05-18T13:41:31.718Z,18.90
2023-05-18T13:46:37.750Z,19.00
2023-05-18T13:51:39.996Z,19.60
2023-05-18T13:56:43.938Z,18.60
2023-05-18T14:01:47.601Z,19.10
2023-05-18T14:06:49.580Z,19.00
2023-05-18T14:11:53.613Z,18.90
2023-05-18T14:16:55.785Z,18.20
2023-05-18T14:21:57.577Z,18.90
2023-05-18T14:26:59.302Z,18.80
2023-05-18T14:32:01.328Z,18.40
2023-05-18T14:37:03.094Z,19.40
2023-05-18T14:42:06.215Z,19.50
2023-05-18T14:47:08.271Z,20.00
2023-05-18T14:52:10.158Z,19.90
2023-05-18T14:57:12.772Z,19.80
2023-05-18T15:02:14.647Z,20.00
2023-05-18T15:07:16.558Z,20.00
2023-05-18T15:12:19.617Z,21.50
2023-05-18T15:17:21.351Z,20.90
2023-05-18T15:22:23.155Z,20.80
2023-05-18T15:27:24.922Z,20.20
2023-05-18T15:32:29.185Z,20.40
2023-05-18T15:37:31.747Z,20.00
2023-05-18T15:42:33.975Z,19.20
2023-05-18T15:47:36.029Z,18.80
2023-05-18T15:52:37.844Z,18.30
2023-05-18T15:57:39.624Z,19.40
2023-05-18T16:02:41.449Z,19.90
2023-05-18T16:07:43.683Z,20.10
2023-05-18T16:12:45.512Z,19.40
2023-05-18T16:17:47.384Z,18.40
2023-05-18T16:22:49.266Z,18.20
2023-05-18T16:27:51.037Z,18.20
2023-05-18T16:32:52.842Z,18.60
2023-05-18T16:37:54.932Z,19.40
2023-05-18T16:42:56.708Z,19.60
2023-05-18T16:48:00.591Z,18.60
2023-05-18T16:53:02.396Z,18.40
2023-05-18T16:58:04.555Z,18.30
2023-05-18T17:03:06.572Z,18.70
2023-05-18T17:08:10.459Z,18.40
2023-05-18T17:13:12.261Z,19.10
2023-05-18T17:18:14.038Z,19.50
2023-05-18T17:23:18.658Z,19.60
2023-05-18T17:28:20.365Z,19.60
2023-05-18T17:33:22.361Z,19.50
2023-05-18T17:38:24.122Z,19.40
2023-05-18T17:43:25.816Z,18.80
2023-05-18T17:48:27.549Z,18.60
2023-05-18T17:53:29.326Z,18.20
2023-05-18T17:58:31.079Z,17.50
2023-05-18T18:03:33.687Z,17.10
2023-05-18T18:08:36.623Z,17.00
2023-05-18T18:13:38.644Z,16.80
2023-05-18T18:18:40.453Z,16.60
2023-05-18T18:23:42.304Z,16.40
2023-05-18T18:28:44.051Z,16.10
2023-05-18T18:33:50.177Z,16.00
2023-05-18T18:38:51.989Z,15.90
2023-05-18T18:43:54.695Z,15.70
2023-05-18T18:48:56.411Z,15.50
2023-05-18T18:53:58.188Z,15.30
2023-05-18T18:59:00.046Z,15.20
2023-05-18T19:04:01.789Z,15.00
2023-05-18T19:09:04.207Z,14.90
2023-05-18T19:14:06.149Z,14.90
2023-05-18T19:19:10.647Z,14.90
2023-05-18T19:24:13.031Z,14.90
2023-05-18T19:29:14.761Z,14.80
2023-05-18T19:34:16.523Z,14.80
2023-05-18T19:39:19.396Z,14.80
2023-05-18T19:44:21.728Z,14.80
2023-05-18T19:49:23.984Z,14.70
2023-05-18T19:54:25.731Z,14.70
2023-05-18T19:59:27.440Z,14.60
2023-05-18T20:04:30.288Z,14.50
2023-05-18T20:09:33.362Z,14.50
2023-05-18T20:14:36.643Z,14.50
2023-05-18T20:19:39.126Z,14.40
2023-05-18T20:24:43.470Z,14.40
2023-05-18T20:29:45.382Z,14.30
2023-05-18T20:34:48.534Z,14.40
2023-05-18T20:39:51.496Z,14.30
2023-05-18T20:44:53.417Z,14.30
2023-05-18T20:49:58.557Z,14.20
2023-05-18T20:55:00.548Z,14.10
2023-05-18T21:00:02.886Z,14.10
2023-05-18T21:05:06.529Z,14.00
2023-05-18T21:10:09.595Z,13.90
2023-05-18T21:15:11.564Z,13.90
2023-05-18T21:20:13.497Z,13.80
2023-05-18T21:25:15.597Z,13.80
2023-05-18T21:30:18.454Z,13.70
2023-05-18T21:35:20.242Z,13.70
2023-05-18T21:40:22.710Z,13.70
2023-05-18T21:45:25.468Z,13.60
2023-05-18T21:50:27.646Z,13.60
2023-05-18T21:55:33.107Z,13.60
2023-05-18T22:00:35.464Z,13.60
2023-05-18T22:05:38.733Z,13.50
2023-05-18T22:10:40.438Z,13.50
2023-05-18T22:15:42.399Z,13.50
2023-05-18T22:20:44.567Z,13.50
2023-05-18T22:25:46.861Z,13.40
2023-05-18T22:30:52.475Z,13.30
2023-05-18T22:35:54.379Z,13.30
2023-05-18T22:40:56.630Z,13.30
2023-05-18T22:45:58.885Z,13.30
2023-05-18T22:51:01.347Z,13.20
2023-05-18T22:56:03.221Z,13.30
2023-05-18T23:01:06.401Z,13.20
2023-05-18T23:06:09.134Z,13.10
2023-05-18T23:11:11.524Z,13.10
2023-05-18T23:16:13.367Z,13.10
2023-05-18T23:21:15.171Z,13.00
2023-05-18T23:26:16.951Z,13.00
2023-05-18T23:31:18.674Z,13.00
2023-05-18T23:36:21.265Z,12.90
2023-05-18T23:41:24.132Z,12.80
2023-05-18T23:46:26.505Z,12.80
2023-05-18T23:51:32.955Z,12.80
2023-05-18T23:56:35.465Z,12.70
